Terminal Aerodrome Forecast
Issued by NWS

Current Version | Previous Version | Graphics & Text | Print | Product List | Glossary On
Versions: 1 2 3 4 5 6 7 8 9 10 11 12 13 14 15 16 17 18 19
609
FTUS41 KILN 192300
TAFLUK
TAF
KLUK 192323Z 2000/2024 35006KT P6SM SCT250
     FM200600 02005KT P6SM BKN250
     FM201200 04007KT P6SM BKN150
     FM201800 04007KT P6SM BKN100 OVC150=

USA.gov is the U.S. government's official web portal to all federal, state and local government web resources and services.